createdAt,value
2023-01-19T00:00:19.182Z,99686.00
2023-01-19T00:02:48.279Z,99665.09
2023-01-19T00:05:16.176Z,99671.72
2023-01-19T00:07:43.960Z,99672.00
2023-01-19T00:10:12.491Z,99676.78
2023-01-19T00:12:40.261Z,99680.13
2023-01-19T00:15:09.119Z,99648.97
2023-01-19T00:17:36.812Z,99657.53
2023-01-19T00:20:06.975Z,99653.31
2023-01-19T00:22:34.659Z,99665.88
2023-01-19T00:25:02.319Z,99659.06
2023-01-19T00:27:30.512Z,99671.00
2023-01-19T00:29:58.167Z,99665.16
2023-01-19T00:32:26.300Z,99677.84
2023-01-19T00:34:53.967Z,99664.13
2023-01-19T00:37:23.012Z,99680.16
2023-01-19T00:39:50.759Z,99676.84
2023-01-19T00:42:36.314Z,99665.88
2023-01-19T00:45:04.119Z,99664.25
2023-01-19T00:47:32.271Z,99679.50
2023-01-19T00:49:59.968Z,99680.22
2023-01-19T00:52:29.066Z,99688.84
2023-01-19T00:54:56.746Z,99672.81
2023-01-19T00:57:24.721Z,99679.56
2023-01-19T00:59:52.499Z,99685.22
2023-01-19T01:02:20.431Z,99684.91
2023-01-19T01:04:48.221Z,99682.72
2023-01-19T01:07:15.958Z,99675.91
2023-01-19T01:09:45.044Z,99680.22
2023-01-19T01:12:12.710Z,99688.56
2023-01-19T01:14:40.404Z,99688.66
2023-01-19T01:17:11.219Z,99688.56
2023-01-19T01:19:39.315Z,99684.47
2023-01-19T01:22:07.151Z,99681.91
2023-01-19T01:24:34.883Z,99692.88
2023-01-19T01:27:03.935Z,99680.25
2023-01-19T01:29:31.583Z,99698.03
2023-01-19T01:31:59.420Z,99681.25
2023-01-19T01:34:27.286Z,99680.31
2023-01-19T01:36:55.569Z,99684.22
2023-01-19T01:39:23.305Z,99691.00
2023-01-19T01:41:51.016Z,99689.22
2023-01-19T01:44:50.726Z,99677.72
2023-01-19T01:47:25.953Z,99681.00
2023-01-19T01:49:59.001Z,99675.09
2023-01-19T01:52:30.263Z,99675.03
2023-01-19T01:54:59.124Z,99674.00
2023-01-19T01:57:28.104Z,99672.50
2023-01-19T01:59:58.384Z,99669.25
2023-01-19T02:02:48.150Z,99600.44
2023-01-19T02:05:20.896Z,99682.53
2023-01-19T02:08:12.078Z,99662.09
2023-01-19T02:10:59.250Z,99657.16
2023-01-19T02:13:27.774Z,99674.78
2023-01-19T02:15:59.110Z,99652.72
2023-01-19T02:18:29.576Z,99657.06
2023-01-19T02:21:07.580Z,99660.34
2023-01-19T02:23:40.762Z,99657.78
2023-01-19T02:26:10.701Z,99653.66
2023-01-19T02:28:42.249Z,99646.94
2023-01-19T02:31:10.675Z,99657.66
2023-01-19T02:33:38.801Z,99647.78
2023-01-19T02:36:09.183Z,99647.69
2023-01-19T02:38:39.952Z,99665.84
2023-01-19T02:41:10.864Z,99642.53
2023-01-19T02:43:39.841Z,99663.63
2023-01-19T02:46:08.735Z,99665.34
2023-01-19T02:48:36.491Z,99673.81
2023-01-19T02:51:11.994Z,99661.31
2023-01-19T02:53:54.524Z,99681.56
2023-01-19T02:56:36.021Z,99670.38
2023-01-19T02:59:12.207Z,99676.09
2023-01-19T03:01:54.112Z,99673.59
2023-01-19T03:04:29.476Z,99673.69
2023-01-19T03:07:05.651Z,99644.00
2023-01-19T03:09:43.601Z,99665.06
2023-01-19T03:12:27.929Z,99675.28
2023-01-19T03:15:01.557Z,99655.84
2023-01-19T03:17:32.781Z,99659.34
2023-01-19T03:20:01.237Z,99656.56
2023-01-19T03:22:30.717Z,99653.28
2023-01-19T03:25:02.577Z,99664.84
2023-01-19T03:27:33.812Z,99654.00
2023-01-19T03:30:07.075Z,99650.72
2023-01-19T03:32:38.965Z,99652.56
2023-01-19T03:35:12.709Z,99660.06
2023-01-19T03:37:44.415Z,99659.91
2023-01-19T03:40:13.989Z,99653.53
2023-01-19T03:42:43.342Z,99666.63
2023-01-19T03:45:13.372Z,99669.31
2023-01-19T03:47:41.588Z,99658.47
2023-01-19T03:50:14.943Z,99655.25
2023-01-19T03:52:42.714Z,99681.03
2023-01-19T03:55:11.254Z,99661.72
2023-01-19T03:57:40.480Z,99674.50
2023-01-19T04:00:09.760Z,99675.03
2023-01-19T04:02:37.544Z,99653.25
2023-01-19T04:05:05.790Z,99674.59
2023-01-19T04:07:33.482Z,99677.09
2023-01-19T04:10:01.281Z,99661.75
2023-01-19T04:12:29.049Z,99661.97
2023-01-19T04:14:58.112Z,99672.72
2023-01-19T04:17:25.861Z,99671.75
2023-01-19T04:19:53.736Z,99655.69
2023-01-19T04:22:21.490Z,99668.56
2023-01-19T04:24:49.150Z,99658.69
2023-01-19T04:27:16.994Z,99661.91
2023-01-19T04:29:44.961Z,99672.66
2023-01-19T04:32:14.499Z,99655.06
2023-01-19T04:34:42.397Z,99667.56
2023-01-19T04:37:10.564Z,99674.41
2023-01-19T04:39:38.303Z,99666.69
2023-01-19T04:42:06.344Z,99659.44
2023-01-19T04:44:34.041Z,99663.41
2023-01-19T04:47:02.817Z,99652.41
2023-01-19T04:49:32.020Z,99663.28
2023-01-19T04:51:59.868Z,99670.13
2023-01-19T04:54:27.667Z,99621.97
2023-01-19T04:56:55.386Z,99636.34
2023-01-19T04:59:23.216Z,99661.88
2023-01-19T05:01:51.034Z,99666.81
2023-01-19T05:04:18.915Z,99677.97
2023-01-19T05:06:48.025Z,99680.41
2023-01-19T05:09:16.000Z,99686.22
2023-01-19T05:11:43.671Z,99681.22
2023-01-19T05:14:11.622Z,99704.13
2023-01-19T05:16:39.625Z,99702.22
2023-01-19T05:19:07.575Z,99689.91
2023-01-19T05:21:35.373Z,99702.78
2023-01-19T05:24:05.456Z,99702.38
2023-01-19T05:26:33.254Z,99696.53
2023-01-19T05:29:01.030Z,99702.66
2023-01-19T05:31:28.803Z,99701.84
2023-01-19T05:33:56.547Z,99697.63
2023-01-19T05:36:24.284Z,99706.88
2023-01-19T05:38:52.011Z,99690.03
2023-01-19T05:41:21.105Z,99704.44
2023-01-19T05:43:48.832Z,99705.38
2023-01-19T05:46:16.602Z,99699.34
2023-01-19T05:48:45.085Z,99714.53
2023-01-19T05:51:12.838Z,99723.63
2023-01-19T05:53:40.668Z,99713.06
2023-01-19T05:56:10.508Z,99711.38
2023-01-19T05:58:40.479Z,99711.41
2023-01-19T06:01:10.141Z,99728.34
2023-01-19T06:03:39.401Z,99719.28
2023-01-19T06:06:07.540Z,99718.22
2023-01-19T06:08:35.345Z,99723.34
2023-01-19T06:11:03.039Z,99719.09
2023-01-19T06:13:30.830Z,99714.97
2023-01-19T06:16:00.988Z,99714.22
2023-01-19T06:18:29.174Z,99731.25
2023-01-19T06:20:59.562Z,99737.00
2023-01-19T06:23:27.302Z,99721.09
2023-01-19T06:25:55.074Z,99730.25
2023-01-19T06:28:23.647Z,99691.34
2023-01-19T06:30:52.097Z,99744.59
2023-01-19T06:33:21.205Z,99739.53
2023-01-19T06:35:50.771Z,99734.50
2023-01-19T06:38:19.368Z,99748.91
2023-01-19T06:40:52.588Z,99744.00
2023-01-19T06:43:20.785Z,99758.25
2023-01-19T06:45:50.136Z,99749.19
2023-01-19T06:48:18.313Z,99749.91
2023-01-19T06:50:48.451Z,99754.72
2023-01-19T06:53:17.508Z,99772.66
2023-01-19T06:55:45.363Z,99770.81
2023-01-19T06:58:13.531Z,99770.16
2023-01-19T07:00:41.388Z,99769.31
2023-01-19T07:03:10.035Z,99790.63
2023-01-19T07:05:37.793Z,99785.63
2023-01-19T07:08:06.991Z,99786.44
2023-01-19T07:11:26.100Z,99798.19
2023-01-19T07:13:22.461Z,99788.88
2023-01-19T07:15:50.231Z,99791.44
2023-01-19T07:18:17.911Z,99802.72
2023-01-19T07:20:49.116Z,99810.97
2023-01-19T07:23:18.412Z,99807.72
2023-01-19T07:25:46.511Z,99767.94
2023-01-19T07:28:15.928Z,99813.84
2023-01-19T07:30:43.965Z,99816.94
2023-01-19T07:33:11.710Z,99836.44
2023-01-19T07:35:39.503Z,99744.91
2023-01-19T07:38:07.220Z,99830.72
2023-01-19T07:40:36.252Z,99827.34
2023-01-19T07:43:04.310Z,99843.47
2023-01-19T07:45:32.218Z,99834.88
2023-01-19T07:47:59.925Z,99831.59
2023-01-19T07:50:29.309Z,99839.31
2023-01-19T07:52:58.281Z,99839.03
2023-01-19T07:55:26.207Z,99840.84
2023-01-19T07:57:55.324Z,99849.31
2023-01-19T08:00:25.211Z,99852.84
2023-01-19T08:02:53.918Z,99865.53
2023-01-19T08:05:22.196Z,99865.69
2023-01-19T08:07:51.112Z,99872.38
2023-01-19T08:10:22.949Z,99881.56
2023-01-19T08:12:50.751Z,99878.03
2023-01-19T08:15:19.957Z,99876.94
2023-01-19T08:17:47.606Z,99881.03
2023-01-19T08:20:15.481Z,99882.63
2023-01-19T08:22:43.183Z,99882.59
2023-01-19T08:25:11.220Z,99874.97
2023-01-19T08:27:38.954Z,99884.28
2023-01-19T08:30:07.925Z,99890.16
2023-01-19T08:32:37.298Z,99897.94
2023-01-19T08:35:06.194Z,99888.56
2023-01-19T08:37:34.360Z,99893.53
2023-01-19T08:40:02.177Z,99882.66
2023-01-19T08:42:30.811Z,99889.16
2023-01-19T08:44:58.780Z,99891.00
2023-01-19T08:47:26.648Z,99890.09
2023-01-19T08:49:55.842Z,99896.78
2023-01-19T08:52:24.713Z,99892.47
2023-01-19T08:54:52.581Z,99896.66
2023-01-19T08:57:20.313Z,99860.22
2023-01-19T08:59:48.380Z,99881.53
2023-01-19T09:02:16.235Z,99877.56
2023-01-19T09:04:44.083Z,99892.50
2023-01-19T09:07:13.257Z,99905.41
2023-01-19T09:09:43.484Z,99900.41
2023-01-19T09:12:11.347Z,99905.97
2023-01-19T09:14:39.419Z,99901.94
2023-01-19T09:17:07.480Z,99896.19
2023-01-19T09:19:35.255Z,99904.09
2023-01-19T09:22:03.090Z,99910.59
2023-01-19T09:24:32.196Z,99902.41
2023-01-19T09:26:59.946Z,99900.47
2023-01-19T09:29:27.770Z,99902.78
2023-01-19T09:31:55.535Z,99897.03
2023-01-19T09:34:25.447Z,99887.81
2023-01-19T09:36:53.434Z,99862.13
2023-01-19T09:39:21.457Z,99891.97
2023-01-19T09:41:57.408Z,99915.38
2023-01-19T09:44:30.607Z,99900.09
2023-01-19T09:46:58.779Z,99902.81
2023-01-19T09:49:33.789Z,99921.41
2023-01-19T09:52:01.868Z,99912.81
2023-01-19T09:54:37.413Z,99898.41
2023-01-19T09:57:11.121Z,99927.22
2023-01-19T09:59:39.426Z,99905.75
2023-01-19T10:02:18.983Z,99938.13
2023-01-19T10:04:59.181Z,99940.06
2023-01-19T10:07:39.963Z,99945.00
2023-01-19T10:10:18.639Z,99937.53
2023-01-19T10:13:01.381Z,99944.19
2023-01-19T10:15:46.446Z,99943.50
2023-01-19T10:18:18.676Z,99939.34
2023-01-19T10:20:51.040Z,99915.59
2023-01-19T10:23:35.977Z,99949.47
2023-01-19T10:26:09.354Z,99964.06
2023-01-19T10:28:39.892Z,99963.97
2023-01-19T10:31:09.631Z,99959.59
2023-01-19T10:33:39.557Z,99951.00
2023-01-19T10:36:17.354Z,99951.00
2023-01-19T10:38:45.398Z,99957.16
2023-01-19T10:41:18.989Z,99927.09
2023-01-19T10:43:48.599Z,99972.38
2023-01-19T10:46:22.110Z,99968.63
2023-01-19T10:48:51.742Z,99970.75
2023-01-19T10:51:19.923Z,99961.91
2023-01-19T10:53:56.956Z,99942.53
2023-01-19T10:56:26.523Z,99977.19
2023-01-19T10:58:55.616Z,99985.88
2023-01-19T11:01:25.822Z,99978.63
2023-01-19T11:03:57.043Z,99981.34
2023-01-19T11:06:28.082Z,99988.22
2023-01-19T11:09:12.469Z,99982.03
2023-01-19T11:11:49.311Z,99982.69
2023-01-19T11:14:22.831Z,99993.03
2023-01-19T11:16:54.113Z,99998.00
2023-01-19T11:19:27.150Z,99987.53
2023-01-19T11:22:10.372Z,99992.72
2023-01-19T11:24:40.093Z,100001.00
2023-01-19T11:27:08.246Z,99982.50
2023-01-19T11:29:38.931Z,100005.56
2023-01-19T11:32:20.462Z,99998.97
2023-01-19T11:34:48.187Z,99992.78
2023-01-19T11:37:29.793Z,99998.72
2023-01-19T11:39:59.662Z,99994.56
2023-01-19T11:42:31.268Z,99988.53
2023-01-19T11:45:05.722Z,99992.31
2023-01-19T11:47:39.867Z,99957.50
2023-01-19T11:50:14.952Z,100001.84
2023-01-19T11:52:46.267Z,99998.44
2023-01-19T11:55:23.094Z,99950.69
2023-01-19T11:57:54.662Z,100013.25
2023-01-19T12:00:29.778Z,99995.47
2023-01-19T12:03:04.101Z,100005.03
2023-01-19T12:05:35.150Z,100009.25
2023-01-19T12:08:07.830Z,100013.41
2023-01-19T12:10:41.607Z,99996.94
2023-01-19T12:13:20.648Z,100000.53
2023-01-19T12:15:54.320Z,100014.06
2023-01-19T12:18:25.319Z,100016.75
2023-01-19T12:20:54.750Z,100019.19
2023-01-19T12:23:33.891Z,100019.72
2023-01-19T12:26:14.871Z,100023.47
2023-01-19T12:28:45.531Z,100028.59
2023-01-19T12:31:17.837Z,100026.16
2023-01-19T12:33:45.817Z,99965.00
2023-01-19T12:36:36.530Z,100027.00
2023-01-19T12:39:07.103Z,100026.56
2023-01-19T12:41:36.831Z,100029.47
2023-01-19T12:44:27.718Z,100030.31
2023-01-19T12:47:03.440Z,100044.47
2023-01-19T12:49:35.243Z,100032.81
2023-01-19T12:52:19.442Z,100033.47
2023-01-19T12:54:54.919Z,100037.22
2023-01-19T12:57:26.196Z,100042.94
2023-01-19T12:59:58.440Z,100043.59
2023-01-19T13:02:55.484Z,100043.50
2023-01-19T13:05:26.154Z,100030.13
2023-01-19T13:08:19.636Z,100044.53
2023-01-19T13:11:23.741Z,100043.84
2023-01-19T13:14:34.481Z,100045.34
2023-01-19T13:17:23.245Z,100038.66
2023-01-19T13:20:20.716Z,100033.03
2023-01-19T13:23:16.511Z,100038.97
2023-01-19T13:25:49.959Z,100044.88
2023-01-19T13:28:19.839Z,100045.25
2023-01-19T13:30:56.487Z,100044.47
2023-01-19T13:33:26.489Z,100055.28
2023-01-19T13:35:58.693Z,100057.00
2023-01-19T13:38:28.253Z,100003.44
2023-01-19T13:40:58.128Z,100062.59
2023-01-19T13:43:30.043Z,100018.53
2023-01-19T13:45:57.954Z,100061.88
2023-01-19T13:48:26.643Z,100074.09
2023-01-19T13:51:02.513Z,100053.03
2023-01-19T13:53:30.631Z,100075.16
2023-01-19T13:56:09.603Z,100070.88
2023-01-19T13:58:37.504Z,100085.25
2023-01-19T14:01:05.856Z,100059.72
2023-01-19T14:03:33.915Z,100085.94
2023-01-19T14:06:03.202Z,100086.16
2023-01-19T14:08:32.829Z,100086.25
2023-01-19T14:11:02.949Z,100093.97
2023-01-19T14:13:34.861Z,100100.63
2023-01-19T14:16:06.942Z,100057.38
2023-01-19T14:18:36.088Z,100095.66
2023-01-19T14:21:07.723Z,100109.38
2023-01-19T14:23:42.558Z,100102.47
2023-01-19T14:26:56.204Z,100112.34
2023-01-19T14:29:27.153Z,100111.94
2023-01-19T14:32:07.952Z,100113.75
2023-01-19T14:34:38.866Z,100114.44
2023-01-19T14:37:17.877Z,100121.25
2023-01-19T14:39:47.280Z,100120.78
2023-01-19T14:42:19.731Z,100137.56
2023-01-19T14:44:51.187Z,100125.66
2023-01-19T14:47:28.051Z,100139.44
2023-01-19T14:49:58.481Z,100140.34
2023-01-19T14:52:31.049Z,100141.19
2023-01-19T14:55:00.320Z,100148.00
2023-01-19T14:57:28.239Z,100146.19
2023-01-19T14:59:56.396Z,100092.69
2023-01-19T15:02:24.334Z,100138.56
2023-01-19T15:04:55.396Z,100142.25
2023-01-19T15:07:26.146Z,100142.28
2023-01-19T15:10:00.551Z,100146.56
2023-01-19T15:12:32.987Z,100155.91
2023-01-19T15:15:02.765Z,100155.28
2023-01-19T15:17:30.497Z,100166.22
2023-01-19T15:19:58.280Z,100174.69
2023-01-19T15:22:29.255Z,100177.88
2023-01-19T15:25:00.026Z,100177.09
2023-01-19T15:27:27.973Z,100170.53
2023-01-19T15:29:55.715Z,100180.78
2023-01-19T15:32:23.426Z,100170.69
2023-01-19T15:34:53.691Z,100178.22
2023-01-19T15:37:21.513Z,100185.09
2023-01-19T15:39:49.287Z,100192.72
2023-01-19T15:42:18.511Z,100190.13
2023-01-19T15:44:46.635Z,100190.13
2023-01-19T15:47:14.535Z,100193.38
2023-01-19T15:49:42.340Z,100199.47
2023-01-19T15:52:10.109Z,100196.19
2023-01-19T15:54:38.471Z,100183.28
2023-01-19T15:57:06.881Z,100208.78
2023-01-19T15:59:37.375Z,100214.88
2023-01-19T16:02:05.827Z,100215.69
2023-01-19T16:04:33.669Z,100211.47
2023-01-19T16:07:01.379Z,100217.31
2023-01-19T16:09:29.118Z,100231.81
2023-01-19T16:11:57.763Z,100232.72
2023-01-19T16:14:25.528Z,100232.78
2023-01-19T16:16:54.595Z,100238.72
2023-01-19T16:19:22.337Z,100233.56
2023-01-19T16:21:50.060Z,100242.31
2023-01-19T16:24:18.112Z,100246.44
2023-01-19T16:26:45.941Z,100241.44
2023-01-19T16:29:13.649Z,100247.31
2023-01-19T16:31:43.233Z,100252.50
2023-01-19T16:34:12.943Z,100249.22
2023-01-19T16:36:42.097Z,100260.28
2023-01-19T16:39:12.927Z,100261.09
2023-01-19T16:41:41.544Z,100263.59
2023-01-19T16:44:12.216Z,100275.53
2023-01-19T16:46:42.064Z,100282.25
2023-01-19T16:49:14.787Z,100274.72
2023-01-19T16:51:42.870Z,100274.69
2023-01-19T16:54:13.970Z,100275.69
2023-01-19T16:56:42.168Z,100285.00
2023-01-19T16:59:12.780Z,100283.25
2023-01-19T17:01:40.914Z,100280.78
2023-01-19T17:04:08.894Z,100284.16
2023-01-19T17:06:37.996Z,100280.75
2023-01-19T17:09:06.737Z,100280.75
2023-01-19T17:11:35.020Z,100294.41
2023-01-19T17:14:04.585Z,100291.06
2023-01-19T17:16:34.077Z,100302.97
2023-01-19T17:19:04.322Z,100253.63
2023-01-19T17:21:32.005Z,100299.66
2023-01-19T17:24:01.176Z,100310.69
2023-01-19T17:26:30.960Z,100297.03
2023-01-19T17:28:59.938Z,100315.00
2023-01-19T17:31:28.656Z,100311.50
2023-01-19T17:33:56.548Z,100318.41
2023-01-19T17:36:25.773Z,100323.59
2023-01-19T17:38:54.953Z,100324.47
2023-01-19T17:41:26.076Z,100326.13
2023-01-19T17:43:54.128Z,100332.91
2023-01-19T17:46:24.125Z,100333.00
2023-01-19T17:48:52.917Z,100333.81
2023-01-19T17:51:22.669Z,100328.69
2023-01-19T17:53:51.384Z,100333.81
2023-01-19T17:56:22.130Z,100346.66
2023-01-19T17:58:51.260Z,100336.38
2023-01-19T18:01:21.472Z,100335.56
2023-01-19T18:03:49.558Z,100333.84
2023-01-19T18:06:18.588Z,100334.72
2023-01-19T18:08:48.221Z,100333.84
2023-01-19T18:11:17.990Z,100344.13
2023-01-19T18:13:46.773Z,100358.63
2023-01-19T18:16:17.747Z,100354.34
2023-01-19T18:18:45.737Z,100358.63
2023-01-19T18:21:15.497Z,100353.50
2023-01-19T18:23:45.164Z,100346.66
2023-01-19T18:26:14.352Z,100340.69
2023-01-19T18:28:42.126Z,100351.81
2023-01-19T18:31:11.890Z,100358.63
2023-01-19T18:33:41.785Z,100361.19
2023-01-19T18:36:10.520Z,100368.88
2023-01-19T18:38:39.796Z,100356.91
2023-01-19T18:41:11.216Z,100313.41
2023-01-19T18:43:39.516Z,100368.03
2023-01-19T18:46:08.047Z,100373.97
2023-01-19T18:48:36.117Z,100368.00
2023-01-19T18:51:08.581Z,100378.25
2023-01-19T18:53:36.817Z,100357.78
2023-01-19T18:56:05.497Z,100377.41
2023-01-19T18:58:35.494Z,100373.97
2023-01-19T19:01:03.308Z,100376.53
2023-01-19T19:03:32.027Z,100336.41
2023-01-19T19:06:03.666Z,100384.22
2023-01-19T19:08:34.506Z,100379.09
2023-01-19T19:11:02.401Z,100366.28
2023-01-19T19:13:30.140Z,100382.50
2023-01-19T19:16:04.091Z,100384.22
2023-01-19T19:18:32.204Z,100379.94
2023-01-19T19:20:59.968Z,100385.09
2023-01-19T19:23:27.671Z,100382.53
2023-01-19T19:26:02.606Z,100386.75
2023-01-19T19:28:30.330Z,100391.06
2023-01-19T19:31:06.540Z,100385.88
2023-01-19T19:33:35.252Z,100402.91
2023-01-19T19:36:02.944Z,100401.25
2023-01-19T19:38:30.982Z,100401.94
2023-01-19T19:41:00.470Z,100417.41
2023-01-19T19:43:28.528Z,100419.16
2023-01-19T19:46:00.458Z,100414.00
2023-01-19T19:48:29.239Z,100420.00
2023-01-19T19:51:03.990Z,100419.97
2023-01-19T19:53:40.082Z,100394.38
2023-01-19T19:56:11.018Z,100430.28
2023-01-19T19:58:39.776Z,100424.25
2023-01-19T20:01:11.305Z,100431.03
2023-01-19T20:03:39.838Z,100427.69
2023-01-19T20:06:09.221Z,100435.41
2023-01-19T20:08:37.366Z,100434.50
2023-01-19T20:11:07.340Z,100443.91
2023-01-19T20:13:38.433Z,100426.84
2023-01-19T20:16:10.107Z,100438.78
2023-01-19T20:18:39.121Z,100437.84
2023-01-19T20:21:13.333Z,100439.59
2023-01-19T20:23:41.395Z,100431.03
2023-01-19T20:26:10.806Z,100437.94
2023-01-19T20:28:40.108Z,100448.13
2023-01-19T20:31:12.632Z,100449.06
2023-01-19T20:33:40.960Z,100408.84
2023-01-19T20:36:10.057Z,100450.72
2023-01-19T20:38:38.175Z,100450.69
2023-01-19T20:41:10.277Z,100447.97
2023-01-19T20:43:40.049Z,100462.47
2023-01-19T20:46:08.268Z,100446.13
2023-01-19T20:48:36.397Z,100473.63
2023-01-19T20:51:07.249Z,100489.03
2023-01-19T20:53:36.177Z,100483.91
2023-01-19T20:56:06.161Z,100489.78
2023-01-19T20:58:34.366Z,100477.88
2023-01-19T21:01:10.822Z,100482.03
2023-01-19T21:03:38.673Z,100392.25
2023-01-19T21:06:06.807Z,100489.69
2023-01-19T21:08:34.567Z,100499.94
2023-01-19T21:11:02.384Z,100499.75
2023-01-19T21:13:30.664Z,100445.94
2023-01-19T21:15:58.519Z,100505.75
2023-01-19T21:18:28.001Z,100493.56
2023-01-19T21:20:57.397Z,100519.28
2023-01-19T21:23:25.152Z,100512.34
2023-01-19T21:25:53.901Z,100525.94
2023-01-19T21:28:22.747Z,100526.09
2023-01-19T21:30:50.951Z,100525.16
2023-01-19T21:33:19.354Z,100505.09
2023-01-19T21:35:52.988Z,100537.94
2023-01-19T21:38:20.871Z,100538.81
2023-01-19T21:40:50.162Z,100555.19
2023-01-19T21:43:19.933Z,100555.00
2023-01-19T21:45:49.283Z,100558.38
2023-01-19T21:48:17.855Z,100551.38
2023-01-19T21:50:45.613Z,100577.31
2023-01-19T21:53:14.809Z,100574.03
2023-01-19T21:55:45.480Z,100515.44
2023-01-19T21:58:13.274Z,100568.59
2023-01-19T22:00:41.127Z,100583.03
2023-01-19T22:03:09.073Z,100573.59
2023-01-19T22:05:37.755Z,100579.69
2023-01-19T22:08:06.328Z,100587.44
2023-01-19T22:10:38.160Z,100586.28
2023-01-19T22:13:06.686Z,100595.13
2023-01-19T22:15:34.590Z,100590.59
2023-01-19T22:18:02.354Z,100595.66
2023-01-19T22:20:30.128Z,100589.50
2023-01-19T22:22:57.904Z,100594.84
2023-01-19T22:25:27.732Z,100607.47
2023-01-19T22:27:58.618Z,100604.13
2023-01-19T22:30:26.490Z,100545.75
2023-01-19T22:32:54.356Z,100618.72
2023-01-19T22:35:22.257Z,100610.19
2023-01-19T22:37:49.918Z,100612.88
2023-01-19T22:40:18.400Z,100613.34
2023-01-19T22:42:47.831Z,100624.50
2023-01-19T22:45:17.076Z,100628.78
2023-01-19T22:47:44.933Z,100626.06
2023-01-19T22:50:13.029Z,100626.66
2023-01-19T22:52:40.684Z,100624.13
2023-01-19T22:55:08.999Z,100633.72
2023-01-19T22:57:37.351Z,100635.34
2023-01-19T23:00:06.734Z,100614.66
2023-01-19T23:02:36.079Z,100640.69
2023-01-19T23:05:18.875Z,100643.22
2023-01-19T23:07:46.652Z,100635.44
2023-01-19T23:10:14.451Z,100649.91
2023-01-19T23:12:42.226Z,100642.81
2023-01-19T23:15:11.270Z,100653.31
2023-01-19T23:17:41.645Z,100657.78
2023-01-19T23:20:11.020Z,100653.09
2023-01-19T23:22:38.693Z,100656.56
2023-01-19T23:25:07.117Z,100660.13
2023-01-19T23:27:34.787Z,100657.16
2023-01-19T23:30:02.620Z,100659.63
2023-01-19T23:32:30.309Z,100678.78
2023-01-19T23:34:59.474Z,100608.59
2023-01-19T23:37:27.159Z,100666.56
2023-01-19T23:39:54.877Z,100685.03
2023-01-19T23:42:22.567Z,100686.63
2023-01-19T23:44:50.304Z,100688.50
2023-01-19T23:47:18.073Z,100690.75
2023-01-19T23:49:45.800Z,100694.44
2023-01-19T23:52:14.882Z,100691.72
2023-01-19T23:54:42.618Z,100700.38
2023-01-19T23:57:10.274Z,100635.69
2023-01-19T23:59:38.244Z,100709.53
